Mississippi State, MS (39762)

11:30 PM CDT on May 24, 2015 (GMT -0500)
Bryan | | Change Station
CLOSE
Current Station
Airport
Location: Starkville,
Elevation: 331 ft
Nearby Weather Stations

Elev 331 ft 33.43 °N, 88.85 °W | Updated 15 minutes ago

Overcast
Overcast
70 °F
Feels Like 70 °F
N
8
Wind Variable Wind from SSE

Today
High -- | Low -- °F
--% Chance of Precip.
Yesterday
High -- | Low -- °F
Precip. -- in
5:49 AM 7:54 PM
Waxing Crescent, 45% visible
Pressure 30.09 in
Visibility 10.0 miles
Clouds Scattered Clouds 900 ft
Mostly Cloudy 2000 ft
Mostly Cloudy 3900 ft
Dew Point 70 °F
Humidity 100%
Rainfall 0.11 in
Snow Depth Not available.
UV 0 out of 12
Pollen 6.60 out of 12
Air Quality Not available.
Flu Activity No Activity
METAR KSTF 250415Z AUTO 15007KT 10SM VCTS SCT009 BKN020 BKN039 21/21 A3009 RMK AO2 P0001 LTG DSNT E

More Conditions Fewer Conditions

Pressure 30.09 in
Visibility 10.0 miles
Clouds Scattered Clouds 900 ft
Mostly Cloudy 2000 ft
Mostly Cloudy 3900 ft
Dew Point 70 °F
Humidity 100%
Rainfall 0.11 in
Snow Depth Not available.
UV 0 out of 12
Pollen 6.60 out of 12
Air Quality Not available.
Flu Activity No Activity
METAR KSTF 250415Z AUTO 15007KT 10SM VCTS SCT009 BKN020 BKN039 21/21 A3009 RMK AO2 P0001 LTG DSNT E

More Conditions Fewer Conditions

10-Day Weather Forecast

Almanac

Astronomy

May. 24, 2015 Rise Set
Actual Time
Civil Twilight
Nautical Twilight
Astronomical Twilight
Moon
Length of Visible Light
Length of Day
Tomorrow will be .
, % of the Moon is Illuminated

Today's Extremes

State Highs State Lows

Community

WunderPhotos

Upload Photos

1,823,954 photos uploaded!

WunderBlogs® & News

Nearby

Air Quality

  Air Quality AQ Index Pollutant
Not available.

Snow Depth

Station Depth Elevation

Earthquake Activity

City Distance Mag. Time & Date
Minimum magnitude displayed is 2.5.

Coastal Water Temperatures

Place Temperature

Stations

Nearby Weather Stations

Station Location Temp. Windchill Dew Point Humidity Wind Precip. Elev Updated Type